Terminal Aerodrome Forecast
Issued by NWS Topeka, KS

Home | Current Version | Previous Version | Text Only | Print | Product List | Glossary On
Versions: 1 2 3 4 5 6 7 8 9 10 11 12 13 14 15
750
FTUS43 KTOP 210925 AAA
TAFTOP
TAF AMD
KTOP 210925Z 2109/2206 10004KT P6SM SCT060 BKN250
     FM211300 12007KT P6SM BKN050=

USA.gov is the U.S. government's official web portal to all federal, state and local government web resources and services.